<?xml version="1.0" encoding="UTF-8" standalone="no" ?>
<gpx xmlns="http://www.topografix.com/GPX/1/1" xmlns:xsi="http://www.w3.org/2001/XMLSchema-instance" xsi:schemaLocation="http://www.topografix.com/GPX/1/1 http://www.topografix.com/GPX/1/1/gpx.xsd" version="1.1" creator="VisuGPX - https://www.visugpx.com">
  <metadata>
    <name>De la Haute Épine à la Fontaine Rouge</name>
    <desc><![CDATA[prépa séjour
]]></desc>
  </metadata>
  <wpt lat="48.08577" lon="3.29314">
    <ele>70</ele>
    <name><![CDATA[Parking Maison de l'Eau]]></name>
  </wpt>
  <wpt lat="48.08224" lon="3.29282">
    <ele>72</ele>
    <name><![CDATA[Bifurcation Pont Saint-Nicolas]]></name>
  </wpt>
  <wpt lat="48.083" lon="3.28383">
    <ele>94</ele>
    <name><![CDATA[Bifurcation en haut du raidillon]]></name>
  </wpt>
  <wpt lat="48.0793" lon="3.26419">
    <ele>160</ele>
    <name><![CDATA[Bifurcation à la Haute Epine]]></name>
  </wpt>
  <wpt lat="48.07117" lon="3.23961">
    <ele>178</ele>
    <name><![CDATA[Intersection RD72]]></name>
  </wpt>
  <wpt lat="48.07586" lon="3.22362">
    <ele>129</ele>
    <name><![CDATA[Barrière métallique]]></name>
  </wpt>
  <wpt lat="48.08838" lon="3.23516">
    <ele>110</ele>
    <name><![CDATA[Bifurcation de la Fontaine Rouge]]></name>
  </wpt>
  <wpt lat="48.08758" lon="3.25207">
    <ele>141</ele>
    <name><![CDATA[Bifurcation après le bois Marteau]]></name>
  </wpt>
  <wpt lat="48.08223" lon="3.25188">
    <ele>166</ele>
    <name><![CDATA[Bifurcation à gauche avant la crête]]></name>
  </wpt>
  <wpt lat="48.0794" lon="3.25749">
    <ele>164</ele>
    <name><![CDATA[Bifurcation entre mare et abribus]]></name>
  </wpt>
  <wpt lat="48.08388" lon="3.26746">
    <ele>114</ele>
    <name><![CDATA[À droite avant le carrefour de chemins]]></name>
  </wpt>
  <wpt lat="48.08578" lon="3.29313">
    <ele>70</ele>
    <name><![CDATA[Parking Maison de l'Eau]]></name>
  </wpt>
  <trk>
    <name><![CDATA[De la Haute Épine à la Fontaine Rouge]]></name>
    <trkseg>
      <trkpt lat="48.08577" lon="3.29314">
        <ele>70</ele>
        <time>2019-12-23T18:21:41+01:00</time>
      </trkpt>
      <trkpt lat="48.08552" lon="3.29319">
        <ele>70</ele>
        <time>2019-12-23T18:21:46+01:00</time>
      </trkpt>
      <trkpt lat="48.08459" lon="3.29333">
        <ele>69</ele>
        <time>2019-12-23T18:21:51+01:00</time>
      </trkpt>
      <trkpt lat="48.08445" lon="3.29334">
        <ele>69</ele>
        <time>2019-12-23T18:21:56+01:00</time>
      </trkpt>
      <trkpt lat="48.08437" lon="3.29335">
        <ele>69</ele>
        <time>2019-12-23T18:22:01+01:00</time>
      </trkpt>
      <trkpt lat="48.08437" lon="3.29335">
        <ele>69</ele>
        <time>2019-12-23T18:22:06+01:00</time>
      </trkpt>
      <trkpt lat="48.08424" lon="3.29336">
        <ele>68</ele>
        <time>2019-12-23T18:22:11+01:00</time>
      </trkpt>
      <trkpt lat="48.0841" lon="3.29337">
        <ele>68</ele>
        <time>2019-12-23T18:22:16+01:00</time>
      </trkpt>
      <trkpt lat="48.08403" lon="3.29338">
        <ele>69</ele>
        <time>2019-12-23T18:22:21+01:00</time>
      </trkpt>
      <trkpt lat="48.08395" lon="3.29338">
        <ele>69</ele>
        <time>2019-12-23T18:22:26+01:00</time>
      </trkpt>
      <trkpt lat="48.08381" lon="3.2934">
        <ele>69</ele>
        <time>2019-12-23T18:22:31+01:00</time>
      </trkpt>
      <trkpt lat="48.08374" lon="3.2934">
        <ele>70</ele>
        <time>2019-12-23T18:22:36+01:00</time>
      </trkpt>
      <trkpt lat="48.08365" lon="3.29342">
        <ele>70</ele>
        <time>2019-12-23T18:22:41+01:00</time>
      </trkpt>
      <trkpt lat="48.08357" lon="3.29329">
        <ele>70</ele>
        <time>2019-12-23T18:22:46+01:00</time>
      </trkpt>
      <trkpt lat="48.08337" lon="3.29319">
        <ele>71</ele>
        <time>2019-12-23T18:22:51+01:00</time>
      </trkpt>
      <trkpt lat="48.08321" lon="3.29314">
        <ele>71</ele>
        <time>2019-12-23T18:22:56+01:00</time>
      </trkpt>
      <trkpt lat="48.08276" lon="3.29298">
        <ele>72</ele>
        <time>2019-12-23T18:23:01+01:00</time>
      </trkpt>
      <trkpt lat="48.08255" lon="3.29288">
        <ele>72</ele>
        <time>2019-12-23T18:23:06+01:00</time>
      </trkpt>
      <trkpt lat="48.08248" lon="3.29283">
        <ele>72</ele>
        <time>2019-12-23T18:23:11+01:00</time>
      </trkpt>
      <trkpt lat="48.08246" lon="3.29282">
        <ele>72</ele>
        <time>2019-12-23T18:23:16+01:00</time>
      </trkpt>
      <trkpt lat="48.0824" lon="3.29291">
        <ele>73</ele>
        <time>2019-12-23T18:23:21+01:00</time>
      </trkpt>
      <trkpt lat="48.08224" lon="3.29282">
        <ele>72</ele>
        <time>2019-12-23T18:23:26+01:00</time>
      </trkpt>
      <trkpt lat="48.08291" lon="3.29042">
        <ele>70</ele>
        <time>2019-12-23T18:23:31+01:00</time>
      </trkpt>
      <trkpt lat="48.08307" lon="3.28993">
        <ele>70</ele>
        <time>2019-12-23T18:23:36+01:00</time>
      </trkpt>
      <trkpt lat="48.08318" lon="3.28942">
        <ele>71</ele>
        <time>2019-12-23T18:23:41+01:00</time>
      </trkpt>
      <trkpt lat="48.08322" lon="3.28886">
        <ele>71</ele>
        <time>2019-12-23T18:23:46+01:00</time>
      </trkpt>
      <trkpt lat="48.08316" lon="3.28815">
        <ele>71</ele>
        <time>2019-12-23T18:23:51+01:00</time>
      </trkpt>
      <trkpt lat="48.08311" lon="3.28777">
        <ele>71</ele>
        <time>2019-12-23T18:23:56+01:00</time>
      </trkpt>
      <trkpt lat="48.08303" lon="3.28733">
        <ele>71</ele>
        <time>2019-12-23T18:24:01+01:00</time>
      </trkpt>
      <trkpt lat="48.08301" lon="3.28715">
        <ele>72</ele>
        <time>2019-12-23T18:24:06+01:00</time>
      </trkpt>
      <trkpt lat="48.08298" lon="3.28706">
        <ele>72</ele>
        <time>2019-12-23T18:24:11+01:00</time>
      </trkpt>
      <trkpt lat="48.083" lon="3.28694">
        <ele>72</ele>
        <time>2019-12-23T18:24:16+01:00</time>
      </trkpt>
      <trkpt lat="48.08301" lon="3.28689">
        <ele>73</ele>
        <time>2019-12-23T18:24:21+01:00</time>
      </trkpt>
      <trkpt lat="48.08307" lon="3.28688">
        <ele>73</ele>
        <time>2019-12-23T18:24:26+01:00</time>
      </trkpt>
      <trkpt lat="48.08315" lon="3.28689">
        <ele>73</ele>
        <time>2019-12-23T18:24:31+01:00</time>
      </trkpt>
      <trkpt lat="48.08312" lon="3.28627">
        <ele>74</ele>
        <time>2019-12-23T18:24:36+01:00</time>
      </trkpt>
      <trkpt lat="48.08311" lon="3.28613">
        <ele>74</ele>
        <time>2019-12-23T18:24:41+01:00</time>
      </trkpt>
      <trkpt lat="48.08312" lon="3.28599">
        <ele>74</ele>
        <time>2019-12-23T18:24:46+01:00</time>
      </trkpt>
      <trkpt lat="48.08315" lon="3.28568">
        <ele>74</ele>
        <time>2019-12-23T18:24:51+01:00</time>
      </trkpt>
      <trkpt lat="48.08328" lon="3.28561">
        <ele>75</ele>
        <time>2019-12-23T18:24:56+01:00</time>
      </trkpt>
      <trkpt lat="48.08325" lon="3.28548">
        <ele>75</ele>
        <time>2019-12-23T18:25:01+01:00</time>
      </trkpt>
      <trkpt lat="48.0832" lon="3.28519">
        <ele>77</ele>
        <time>2019-12-23T18:25:06+01:00</time>
      </trkpt>
      <trkpt lat="48.08316" lon="3.28485">
        <ele>79</ele>
        <time>2019-12-23T18:25:11+01:00</time>
      </trkpt>
      <trkpt lat="48.083" lon="3.28383">
        <ele>94</ele>
        <time>2019-12-23T18:25:16+01:00</time>
      </trkpt>
      <trkpt lat="48.0827" lon="3.28396">
        <ele>94</ele>
        <time>2019-12-23T18:25:21+01:00</time>
      </trkpt>
      <trkpt lat="48.08239" lon="3.28412">
        <ele>94</ele>
        <time>2019-12-23T18:25:26+01:00</time>
      </trkpt>
      <trkpt lat="48.0821" lon="3.28413">
        <ele>93</ele>
        <time>2019-12-23T18:25:31+01:00</time>
      </trkpt>
      <trkpt lat="48.08193" lon="3.28408">
        <ele>93</ele>
        <time>2019-12-23T18:25:36+01:00</time>
      </trkpt>
      <trkpt lat="48.08138" lon="3.28385">
        <ele>94</ele>
        <time>2019-12-23T18:25:41+01:00</time>
      </trkpt>
      <trkpt lat="48.08108" lon="3.28374">
        <ele>93</ele>
        <time>2019-12-23T18:25:46+01:00</time>
      </trkpt>
      <trkpt lat="48.08081" lon="3.28364">
        <ele>92</ele>
        <time>2019-12-23T18:25:51+01:00</time>
      </trkpt>
      <trkpt lat="48.08062" lon="3.28359">
        <ele>90</ele>
        <time>2019-12-23T18:25:56+01:00</time>
      </trkpt>
      <trkpt lat="48.0806" lon="3.28347">
        <ele>91</ele>
        <time>2019-12-23T18:26:01+01:00</time>
      </trkpt>
      <trkpt lat="48.0806" lon="3.28338">
        <ele>91</ele>
        <time>2019-12-23T18:26:06+01:00</time>
      </trkpt>
      <trkpt lat="48.08061" lon="3.28327">
        <ele>92</ele>
        <time>2019-12-23T18:26:11+01:00</time>
      </trkpt>
      <trkpt lat="48.0807" lon="3.2831">
        <ele>94</ele>
        <time>2019-12-23T18:26:16+01:00</time>
      </trkpt>
      <trkpt lat="48.08078" lon="3.28292">
        <ele>96</ele>
        <time>2019-12-23T18:26:21+01:00</time>
      </trkpt>
      <trkpt lat="48.08084" lon="3.28277">
        <ele>98</ele>
        <time>2019-12-23T18:26:26+01:00</time>
      </trkpt>
      <trkpt lat="48.081" lon="3.28248">
        <ele>103</ele>
        <time>2019-12-23T18:26:31+01:00</time>
      </trkpt>
      <trkpt lat="48.08111" lon="3.28229">
        <ele>106</ele>
        <time>2019-12-23T18:26:36+01:00</time>
      </trkpt>
      <trkpt lat="48.08119" lon="3.28212">
        <ele>109</ele>
        <time>2019-12-23T18:26:41+01:00</time>
      </trkpt>
      <trkpt lat="48.08126" lon="3.28197">
        <ele>111</ele>
        <time>2019-12-23T18:26:46+01:00</time>
      </trkpt>
      <trkpt lat="48.08129" lon="3.28187">
        <ele>113</ele>
        <time>2019-12-23T18:26:51+01:00</time>
      </trkpt>
      <trkpt lat="48.08129" lon="3.28178">
        <ele>114</ele>
        <time>2019-12-23T18:26:56+01:00</time>
      </trkpt>
      <trkpt lat="48.08124" lon="3.28163">
        <ele>114</ele>
        <time>2019-12-23T18:27:01+01:00</time>
      </trkpt>
      <trkpt lat="48.08121" lon="3.2813">
        <ele>115</ele>
        <time>2019-12-23T18:27:06+01:00</time>
      </trkpt>
      <trkpt lat="48.08119" lon="3.28097">
        <ele>117</ele>
        <time>2019-12-23T18:27:11+01:00</time>
      </trkpt>
      <trkpt lat="48.08122" lon="3.28049">
        <ele>121</ele>
        <time>2019-12-23T18:27:16+01:00</time>
      </trkpt>
      <trkpt lat="48.08127" lon="3.2802">
        <ele>124</ele>
        <time>2019-12-23T18:27:21+01:00</time>
      </trkpt>
      <trkpt lat="48.08133" lon="3.27995">
        <ele>127</ele>
        <time>2019-12-23T18:27:26+01:00</time>
      </trkpt>
      <trkpt lat="48.08137" lon="3.27979">
        <ele>128</ele>
        <time>2019-12-23T18:27:31+01:00</time>
      </trkpt>
      <trkpt lat="48.08131" lon="3.27951">
        <ele>130</ele>
        <time>2019-12-23T18:27:36+01:00</time>
      </trkpt>
      <trkpt lat="48.08114" lon="3.2791">
        <ele>133</ele>
        <time>2019-12-23T18:27:41+01:00</time>
      </trkpt>
      <trkpt lat="48.08105" lon="3.27895">
        <ele>134</ele>
        <time>2019-12-23T18:27:46+01:00</time>
      </trkpt>
      <trkpt lat="48.0809" lon="3.27877">
        <ele>135</ele>
        <time>2019-12-23T18:27:51+01:00</time>
      </trkpt>
      <trkpt lat="48.08076" lon="3.27843">
        <ele>136</ele>
        <time>2019-12-23T18:27:56+01:00</time>
      </trkpt>
      <trkpt lat="48.08063" lon="3.27789">
        <ele>137</ele>
        <time>2019-12-23T18:28:01+01:00</time>
      </trkpt>
      <trkpt lat="48.08058" lon="3.2776">
        <ele>138</ele>
        <time>2019-12-23T18:28:06+01:00</time>
      </trkpt>
      <trkpt lat="48.08061" lon="3.277">
        <ele>141</ele>
        <time>2019-12-23T18:28:11+01:00</time>
      </trkpt>
      <trkpt lat="48.08059" lon="3.27686">
        <ele>141</ele>
        <time>2019-12-23T18:28:16+01:00</time>
      </trkpt>
      <trkpt lat="48.08049" lon="3.27649">
        <ele>143</ele>
        <time>2019-12-23T18:28:21+01:00</time>
      </trkpt>
      <trkpt lat="48.08043" lon="3.27629">
        <ele>145</ele>
        <time>2019-12-23T18:28:26+01:00</time>
      </trkpt>
      <trkpt lat="48.08017" lon="3.27596">
        <ele>148</ele>
        <time>2019-12-23T18:28:31+01:00</time>
      </trkpt>
      <trkpt lat="48.08013" lon="3.27589">
        <ele>148</ele>
        <time>2019-12-23T18:28:36+01:00</time>
      </trkpt>
      <trkpt lat="48.08006" lon="3.27571">
        <ele>150</ele>
        <time>2019-12-23T18:28:41+01:00</time>
      </trkpt>
      <trkpt lat="48.08003" lon="3.27547">
        <ele>151</ele>
        <time>2019-12-23T18:28:46+01:00</time>
      </trkpt>
      <trkpt lat="48.08001" lon="3.27539">
        <ele>152</ele>
        <time>2019-12-23T18:28:51+01:00</time>
      </trkpt>
      <trkpt lat="48.07965" lon="3.27481">
        <ele>151</ele>
        <time>2019-12-23T18:28:56+01:00</time>
      </trkpt>
      <trkpt lat="48.07953" lon="3.27458">
        <ele>150</ele>
        <time>2019-12-23T18:29:01+01:00</time>
      </trkpt>
      <trkpt lat="48.07947" lon="3.27433">
        <ele>151</ele>
        <time>2019-12-23T18:29:06+01:00</time>
      </trkpt>
      <trkpt lat="48.07943" lon="3.2741">
        <ele>151</ele>
        <time>2019-12-23T18:29:11+01:00</time>
      </trkpt>
      <trkpt lat="48.07942" lon="3.27375">
        <ele>152</ele>
        <time>2019-12-23T18:29:16+01:00</time>
      </trkpt>
      <trkpt lat="48.07939" lon="3.2734">
        <ele>153</ele>
        <time>2019-12-23T18:29:21+01:00</time>
      </trkpt>
      <trkpt lat="48.07936" lon="3.27297">
        <ele>155</ele>
        <time>2019-12-23T18:29:26+01:00</time>
      </trkpt>
      <trkpt lat="48.07936" lon="3.27274">
        <ele>155</ele>
        <time>2019-12-23T18:29:31+01:00</time>
      </trkpt>
      <trkpt lat="48.07939" lon="3.27252">
        <ele>156</ele>
        <time>2019-12-23T18:29:36+01:00</time>
      </trkpt>
      <trkpt lat="48.07944" lon="3.27223">
        <ele>157</ele>
        <time>2019-12-23T18:29:41+01:00</time>
      </trkpt>
      <trkpt lat="48.07953" lon="3.27193">
        <ele>157</ele>
        <time>2019-12-23T18:29:46+01:00</time>
      </trkpt>
      <trkpt lat="48.0796" lon="3.27165">
        <ele>158</ele>
        <time>2019-12-23T18:29:51+01:00</time>
      </trkpt>
      <trkpt lat="48.07964" lon="3.27141">
        <ele>158</ele>
        <time>2019-12-23T18:29:56+01:00</time>
      </trkpt>
      <trkpt lat="48.07967" lon="3.27117">
        <ele>158</ele>
        <time>2019-12-23T18:30:01+01:00</time>
      </trkpt>
      <trkpt lat="48.07969" lon="3.27077">
        <ele>158</ele>
        <time>2019-12-23T18:30:06+01:00</time>
      </trkpt>
      <trkpt lat="48.07969" lon="3.27032">
        <ele>158</ele>
        <time>2019-12-23T18:30:11+01:00</time>
      </trkpt>
      <trkpt lat="48.07967" lon="3.26999">
        <ele>158</ele>
        <time>2019-12-23T18:30:16+01:00</time>
      </trkpt>
      <trkpt lat="48.07961" lon="3.26965">
        <ele>158</ele>
        <time>2019-12-23T18:30:21+01:00</time>
      </trkpt>
      <trkpt lat="48.07954" lon="3.26932">
        <ele>157</ele>
        <time>2019-12-23T18:30:26+01:00</time>
      </trkpt>
      <trkpt lat="48.07948" lon="3.26889">
        <ele>158</ele>
        <time>2019-12-23T18:30:31+01:00</time>
      </trkpt>
      <trkpt lat="48.07932" lon="3.26796">
        <ele>161</ele>
        <time>2019-12-23T18:30:36+01:00</time>
      </trkpt>
      <trkpt lat="48.07927" lon="3.26767">
        <ele>161</ele>
        <time>2019-12-23T18:30:41+01:00</time>
      </trkpt>
      <trkpt lat="48.07925" lon="3.26724">
        <ele>162</ele>
        <time>2019-12-23T18:30:46+01:00</time>
      </trkpt>
      <trkpt lat="48.07925" lon="3.26678">
        <ele>163</ele>
        <time>2019-12-23T18:30:51+01:00</time>
      </trkpt>
      <trkpt lat="48.07926" lon="3.26615">
        <ele>162</ele>
        <time>2019-12-23T18:30:56+01:00</time>
      </trkpt>
      <trkpt lat="48.07928" lon="3.26586">
        <ele>162</ele>
        <time>2019-12-23T18:31:01+01:00</time>
      </trkpt>
      <trkpt lat="48.07932" lon="3.26558">
        <ele>161</ele>
        <time>2019-12-23T18:31:06+01:00</time>
      </trkpt>
      <trkpt lat="48.07935" lon="3.26544">
        <ele>161</ele>
        <time>2019-12-23T18:31:11+01:00</time>
      </trkpt>
      <trkpt lat="48.07937" lon="3.26511">
        <ele>160</ele>
        <time>2019-12-23T18:31:16+01:00</time>
      </trkpt>
      <trkpt lat="48.07937" lon="3.2648">
        <ele>160</ele>
        <time>2019-12-23T18:31:21+01:00</time>
      </trkpt>
      <trkpt lat="48.07936" lon="3.26437">
        <ele>160</ele>
        <time>2019-12-23T18:31:26+01:00</time>
      </trkpt>
      <trkpt lat="48.07934" lon="3.26426">
        <ele>160</ele>
        <time>2019-12-23T18:31:31+01:00</time>
      </trkpt>
      <trkpt lat="48.0793" lon="3.26419">
        <ele>160</ele>
        <time>2019-12-23T18:31:36+01:00</time>
      </trkpt>
      <trkpt lat="48.07909" lon="3.26469">
        <ele>158</ele>
        <time>2019-12-23T18:31:41+01:00</time>
      </trkpt>
      <trkpt lat="48.07897" lon="3.26499">
        <ele>156</ele>
        <time>2019-12-23T18:31:46+01:00</time>
      </trkpt>
      <trkpt lat="48.0789" lon="3.26528">
        <ele>156</ele>
        <time>2019-12-23T18:31:51+01:00</time>
      </trkpt>
      <trkpt lat="48.07877" lon="3.26584">
        <ele>156</ele>
        <time>2019-12-23T18:31:56+01:00</time>
      </trkpt>
      <trkpt lat="48.07869" lon="3.26625">
        <ele>155</ele>
        <time>2019-12-23T18:32:01+01:00</time>
      </trkpt>
      <trkpt lat="48.07862" lon="3.26664">
        <ele>154</ele>
        <time>2019-12-23T18:32:06+01:00</time>
      </trkpt>
      <trkpt lat="48.07855" lon="3.26696">
        <ele>153</ele>
        <time>2019-12-23T18:32:11+01:00</time>
      </trkpt>
      <trkpt lat="48.07835" lon="3.26684">
        <ele>150</ele>
        <time>2019-12-23T18:32:16+01:00</time>
      </trkpt>
      <trkpt lat="48.07818" lon="3.26666">
        <ele>145</ele>
        <time>2019-12-23T18:32:21+01:00</time>
      </trkpt>
      <trkpt lat="48.07808" lon="3.26652">
        <ele>142</ele>
        <time>2019-12-23T18:32:26+01:00</time>
      </trkpt>
      <trkpt lat="48.07796" lon="3.26641">
        <ele>139</ele>
        <time>2019-12-23T18:32:31+01:00</time>
      </trkpt>
      <trkpt lat="48.0779" lon="3.26628">
        <ele>137</ele>
        <time>2019-12-23T18:32:36+01:00</time>
      </trkpt>
      <trkpt lat="48.07786" lon="3.26611">
        <ele>135</ele>
        <time>2019-12-23T18:32:41+01:00</time>
      </trkpt>
      <trkpt lat="48.07771" lon="3.26609">
        <ele>131</ele>
        <time>2019-12-23T18:32:46+01:00</time>
      </trkpt>
      <trkpt lat="48.07757" lon="3.26602">
        <ele>126</ele>
        <time>2019-12-23T18:32:51+01:00</time>
      </trkpt>
      <trkpt lat="48.07744" lon="3.26605">
        <ele>123</ele>
        <time>2019-12-23T18:32:56+01:00</time>
      </trkpt>
      <trkpt lat="48.07735" lon="3.26609">
        <ele>121</ele>
        <time>2019-12-23T18:33:01+01:00</time>
      </trkpt>
      <trkpt lat="48.07724" lon="3.26616">
        <ele>118</ele>
        <time>2019-12-23T18:33:06+01:00</time>
      </trkpt>
      <trkpt lat="48.07712" lon="3.26623">
        <ele>115</ele>
        <time>2019-12-23T18:33:11+01:00</time>
      </trkpt>
      <trkpt lat="48.07698" lon="3.26626">
        <ele>112</ele>
        <time>2019-12-23T18:33:16+01:00</time>
      </trkpt>
      <trkpt lat="48.0769" lon="3.26626">
        <ele>110</ele>
        <time>2019-12-23T18:33:21+01:00</time>
      </trkpt>
      <trkpt lat="48.07683" lon="3.2663">
        <ele>108</ele>
        <time>2019-12-23T18:33:26+01:00</time>
      </trkpt>
      <trkpt lat="48.07672" lon="3.26637">
        <ele>105</ele>
        <time>2019-12-23T18:33:31+01:00</time>
      </trkpt>
      <trkpt lat="48.07663" lon="3.26638">
        <ele>105</ele>
        <time>2019-12-23T18:33:36+01:00</time>
      </trkpt>
      <trkpt lat="48.07659" lon="3.2661">
        <ele>107</ele>
        <time>2019-12-23T18:33:41+01:00</time>
      </trkpt>
      <trkpt lat="48.0766" lon="3.26572">
        <ele>107</ele>
        <time>2019-12-23T18:33:46+01:00</time>
      </trkpt>
      <trkpt lat="48.07664" lon="3.26535">
        <ele>107</ele>
        <time>2019-12-23T18:33:51+01:00</time>
      </trkpt>
      <trkpt lat="48.07669" lon="3.26504">
        <ele>107</ele>
        <time>2019-12-23T18:33:56+01:00</time>
      </trkpt>
      <trkpt lat="48.07673" lon="3.26478">
        <ele>109</ele>
        <time>2019-12-23T18:34:01+01:00</time>
      </trkpt>
      <trkpt lat="48.07676" lon="3.26439">
        <ele>111</ele>
        <time>2019-12-23T18:34:06+01:00</time>
      </trkpt>
      <trkpt lat="48.07676" lon="3.264">
        <ele>112</ele>
        <time>2019-12-23T18:34:11+01:00</time>
      </trkpt>
      <trkpt lat="48.07675" lon="3.26306">
        <ele>110</ele>
        <time>2019-12-23T18:34:16+01:00</time>
      </trkpt>
      <trkpt lat="48.07675" lon="3.26264">
        <ele>110</ele>
        <time>2019-12-23T18:34:21+01:00</time>
      </trkpt>
      <trkpt lat="48.07674" lon="3.2618">
        <ele>109</ele>
        <time>2019-12-23T18:34:26+01:00</time>
      </trkpt>
      <trkpt lat="48.07677" lon="3.26133">
        <ele>111</ele>
        <time>2019-12-23T18:34:31+01:00</time>
      </trkpt>
      <trkpt lat="48.07678" lon="3.26096">
        <ele>113</ele>
        <time>2019-12-23T18:34:36+01:00</time>
      </trkpt>
      <trkpt lat="48.07681" lon="3.26059">
        <ele>115</ele>
        <time>2019-12-23T18:34:41+01:00</time>
      </trkpt>
      <trkpt lat="48.07683" lon="3.26022">
        <ele>117</ele>
        <time>2019-12-23T18:34:46+01:00</time>
      </trkpt>
      <trkpt lat="48.07679" lon="3.25991">
        <ele>118</ele>
        <time>2019-12-23T18:34:51+01:00</time>
      </trkpt>
      <trkpt lat="48.07697" lon="3.25866">
        <ele>123</ele>
        <time>2019-12-23T18:34:56+01:00</time>
      </trkpt>
      <trkpt lat="48.07699" lon="3.25811">
        <ele>125</ele>
        <time>2019-12-23T18:35:01+01:00</time>
      </trkpt>
      <trkpt lat="48.07704" lon="3.25752">
        <ele>126</ele>
        <time>2019-12-23T18:35:06+01:00</time>
      </trkpt>
      <trkpt lat="48.07714" lon="3.25664">
        <ele>128</ele>
        <time>2019-12-23T18:35:11+01:00</time>
      </trkpt>
      <trkpt lat="48.07717" lon="3.25609">
        <ele>130</ele>
        <time>2019-12-23T18:35:16+01:00</time>
      </trkpt>
      <trkpt lat="48.07715" lon="3.25551">
        <ele>131</ele>
        <time>2019-12-23T18:35:21+01:00</time>
      </trkpt>
      <trkpt lat="48.07713" lon="3.25523">
        <ele>132</ele>
        <time>2019-12-23T18:35:26+01:00</time>
      </trkpt>
      <trkpt lat="48.0771" lon="3.25496">
        <ele>132</ele>
        <time>2019-12-23T18:35:31+01:00</time>
      </trkpt>
      <trkpt lat="48.07687" lon="3.25411">
        <ele>132</ele>
        <time>2019-12-23T18:35:36+01:00</time>
      </trkpt>
      <trkpt lat="48.07677" lon="3.25376">
        <ele>132</ele>
        <time>2019-12-23T18:35:41+01:00</time>
      </trkpt>
      <trkpt lat="48.07664" lon="3.2534">
        <ele>132</ele>
        <time>2019-12-23T18:35:46+01:00</time>
      </trkpt>
      <trkpt lat="48.0764" lon="3.25273">
        <ele>136</ele>
        <time>2019-12-23T18:35:51+01:00</time>
      </trkpt>
      <trkpt lat="48.07631" lon="3.25242">
        <ele>137</ele>
        <time>2019-12-23T18:35:56+01:00</time>
      </trkpt>
      <trkpt lat="48.07605" lon="3.25198">
        <ele>138</ele>
        <time>2019-12-23T18:36:01+01:00</time>
      </trkpt>
      <trkpt lat="48.0758" lon="3.25153">
        <ele>140</ele>
        <time>2019-12-23T18:36:06+01:00</time>
      </trkpt>
      <trkpt lat="48.07574" lon="3.25144">
        <ele>142</ele>
        <time>2019-12-23T18:36:11+01:00</time>
      </trkpt>
      <trkpt lat="48.07562" lon="3.25118">
        <ele>145</ele>
        <time>2019-12-23T18:36:16+01:00</time>
      </trkpt>
      <trkpt lat="48.07564" lon="3.2509">
        <ele>148</ele>
        <time>2019-12-23T18:36:21+01:00</time>
      </trkpt>
      <trkpt lat="48.07564" lon="3.25071">
        <ele>149</ele>
        <time>2019-12-23T18:36:26+01:00</time>
      </trkpt>
      <trkpt lat="48.07545" lon="3.25042">
        <ele>150</ele>
        <time>2019-12-23T18:36:31+01:00</time>
      </trkpt>
      <trkpt lat="48.07541" lon="3.25032">
        <ele>150</ele>
        <time>2019-12-23T18:36:36+01:00</time>
      </trkpt>
      <trkpt lat="48.07518" lon="3.24998">
        <ele>149</ele>
        <time>2019-12-23T18:36:41+01:00</time>
      </trkpt>
      <trkpt lat="48.07507" lon="3.24986">
        <ele>148</ele>
        <time>2019-12-23T18:36:46+01:00</time>
      </trkpt>
      <trkpt lat="48.07496" lon="3.24974">
        <ele>147</ele>
        <time>2019-12-23T18:36:51+01:00</time>
      </trkpt>
      <trkpt lat="48.07483" lon="3.24956">
        <ele>148</ele>
        <time>2019-12-23T18:36:56+01:00</time>
      </trkpt>
      <trkpt lat="48.07465" lon="3.24932">
        <ele>149</ele>
        <time>2019-12-23T18:37:01+01:00</time>
      </trkpt>
      <trkpt lat="48.07445" lon="3.24904">
        <ele>150</ele>
        <time>2019-12-23T18:37:06+01:00</time>
      </trkpt>
      <trkpt lat="48.07431" lon="3.24881">
        <ele>151</ele>
        <time>2019-12-23T18:37:11+01:00</time>
      </trkpt>
      <trkpt lat="48.0741" lon="3.24853">
        <ele>152</ele>
        <time>2019-12-23T18:37:16+01:00</time>
      </trkpt>
      <trkpt lat="48.07391" lon="3.24836">
        <ele>152</ele>
        <time>2019-12-23T18:37:21+01:00</time>
      </trkpt>
      <trkpt lat="48.07369" lon="3.24808">
        <ele>154</ele>
        <time>2019-12-23T18:37:26+01:00</time>
      </trkpt>
      <trkpt lat="48.07331" lon="3.24779">
        <ele>155</ele>
        <time>2019-12-23T18:37:31+01:00</time>
      </trkpt>
      <trkpt lat="48.07304" lon="3.24757">
        <ele>156</ele>
        <time>2019-12-23T18:37:36+01:00</time>
      </trkpt>
      <trkpt lat="48.07284" lon="3.24734">
        <ele>158</ele>
        <time>2019-12-23T18:37:41+01:00</time>
      </trkpt>
      <trkpt lat="48.07261" lon="3.24697">
        <ele>158</ele>
        <time>2019-12-23T18:37:46+01:00</time>
      </trkpt>
      <trkpt lat="48.0724" lon="3.2466">
        <ele>158</ele>
        <time>2019-12-23T18:37:51+01:00</time>
      </trkpt>
      <trkpt lat="48.07228" lon="3.24645">
        <ele>159</ele>
        <time>2019-12-23T18:37:56+01:00</time>
      </trkpt>
      <trkpt lat="48.07211" lon="3.24599">
        <ele>160</ele>
        <time>2019-12-23T18:38:01+01:00</time>
      </trkpt>
      <trkpt lat="48.07206" lon="3.24567">
        <ele>161</ele>
        <time>2019-12-23T18:38:06+01:00</time>
      </trkpt>
      <trkpt lat="48.07207" lon="3.24529">
        <ele>162</ele>
        <time>2019-12-23T18:38:11+01:00</time>
      </trkpt>
      <trkpt lat="48.07212" lon="3.24492">
        <ele>164</ele>
        <time>2019-12-23T18:38:16+01:00</time>
      </trkpt>
      <trkpt lat="48.07219" lon="3.24464">
        <ele>165</ele>
        <time>2019-12-23T18:38:21+01:00</time>
      </trkpt>
      <trkpt lat="48.07233" lon="3.24406">
        <ele>166</ele>
        <time>2019-12-23T18:38:26+01:00</time>
      </trkpt>
      <trkpt lat="48.07238" lon="3.24384">
        <ele>168</ele>
        <time>2019-12-23T18:38:31+01:00</time>
      </trkpt>
      <trkpt lat="48.07242" lon="3.24367">
        <ele>169</ele>
        <time>2019-12-23T18:38:36+01:00</time>
      </trkpt>
      <trkpt lat="48.07244" lon="3.24338">
        <ele>171</ele>
        <time>2019-12-23T18:38:41+01:00</time>
      </trkpt>
      <trkpt lat="48.07245" lon="3.24314">
        <ele>171</ele>
        <time>2019-12-23T18:38:46+01:00</time>
      </trkpt>
      <trkpt lat="48.07241" lon="3.24271">
        <ele>172</ele>
        <time>2019-12-23T18:38:51+01:00</time>
      </trkpt>
      <trkpt lat="48.0724" lon="3.24256">
        <ele>172</ele>
        <time>2019-12-23T18:38:56+01:00</time>
      </trkpt>
      <trkpt lat="48.07237" lon="3.24235">
        <ele>172</ele>
        <time>2019-12-23T18:39:01+01:00</time>
      </trkpt>
      <trkpt lat="48.07232" lon="3.24211">
        <ele>173</ele>
        <time>2019-12-23T18:39:06+01:00</time>
      </trkpt>
      <trkpt lat="48.07221" lon="3.2418">
        <ele>174</ele>
        <time>2019-12-23T18:39:11+01:00</time>
      </trkpt>
      <trkpt lat="48.07214" lon="3.24164">
        <ele>174</ele>
        <time>2019-12-23T18:39:16+01:00</time>
      </trkpt>
      <trkpt lat="48.072" lon="3.2413">
        <ele>175</ele>
        <time>2019-12-23T18:39:21+01:00</time>
      </trkpt>
      <trkpt lat="48.07189" lon="3.24106">
        <ele>175</ele>
        <time>2019-12-23T18:39:26+01:00</time>
      </trkpt>
      <trkpt lat="48.07183" lon="3.24093">
        <ele>175</ele>
        <time>2019-12-23T18:39:31+01:00</time>
      </trkpt>
      <trkpt lat="48.07163" lon="3.24057">
        <ele>176</ele>
        <time>2019-12-23T18:39:36+01:00</time>
      </trkpt>
      <trkpt lat="48.0715" lon="3.24033">
        <ele>177</ele>
        <time>2019-12-23T18:39:41+01:00</time>
      </trkpt>
      <trkpt lat="48.07136" lon="3.24006">
        <ele>178</ele>
        <time>2019-12-23T18:39:46+01:00</time>
      </trkpt>
      <trkpt lat="48.07123" lon="3.23983">
        <ele>178</ele>
        <time>2019-12-23T18:39:51+01:00</time>
      </trkpt>
      <trkpt lat="48.07117" lon="3.23972">
        <ele>178</ele>
        <time>2019-12-23T18:39:56+01:00</time>
      </trkpt>
      <trkpt lat="48.07117" lon="3.23961">
        <ele>178</ele>
        <time>2019-12-23T18:40:01+01:00</time>
      </trkpt>
      <trkpt lat="48.07161" lon="3.23876">
        <ele>184</ele>
        <time>2019-12-23T18:40:06+01:00</time>
      </trkpt>
      <trkpt lat="48.0718" lon="3.2385">
        <ele>187</ele>
        <time>2019-12-23T18:40:11+01:00</time>
      </trkpt>
      <trkpt lat="48.072" lon="3.23822">
        <ele>190</ele>
        <time>2019-12-23T18:40:16+01:00</time>
      </trkpt>
      <trkpt lat="48.07231" lon="3.23773">
        <ele>192</ele>
        <time>2019-12-23T18:40:21+01:00</time>
      </trkpt>
      <trkpt lat="48.07256" lon="3.23732">
        <ele>195</ele>
        <time>2019-12-23T18:40:26+01:00</time>
      </trkpt>
      <trkpt lat="48.0727" lon="3.23712">
        <ele>196</ele>
        <time>2019-12-23T18:40:31+01:00</time>
      </trkpt>
      <trkpt lat="48.07291" lon="3.23681">
        <ele>199</ele>
        <time>2019-12-23T18:40:36+01:00</time>
      </trkpt>
      <trkpt lat="48.0731" lon="3.23627">
        <ele>201</ele>
        <time>2019-12-23T18:40:41+01:00</time>
      </trkpt>
      <trkpt lat="48.0733" lon="3.23554">
        <ele>203</ele>
        <time>2019-12-23T18:40:46+01:00</time>
      </trkpt>
      <trkpt lat="48.07348" lon="3.23468">
        <ele>202</ele>
        <time>2019-12-23T18:40:51+01:00</time>
      </trkpt>
      <trkpt lat="48.07361" lon="3.2341">
        <ele>199</ele>
        <time>2019-12-23T18:40:56+01:00</time>
      </trkpt>
      <trkpt lat="48.07372" lon="3.23372">
        <ele>196</ele>
        <time>2019-12-23T18:41:01+01:00</time>
      </trkpt>
      <trkpt lat="48.07381" lon="3.23345">
        <ele>193</ele>
        <time>2019-12-23T18:41:06+01:00</time>
      </trkpt>
      <trkpt lat="48.07385" lon="3.23327">
        <ele>192</ele>
        <time>2019-12-23T18:41:11+01:00</time>
      </trkpt>
      <trkpt lat="48.07395" lon="3.23281">
        <ele>189</ele>
        <time>2019-12-23T18:41:16+01:00</time>
      </trkpt>
      <trkpt lat="48.07399" lon="3.23257">
        <ele>188</ele>
        <time>2019-12-23T18:41:21+01:00</time>
      </trkpt>
      <trkpt lat="48.07429" lon="3.2314">
        <ele>181</ele>
        <time>2019-12-23T18:41:26+01:00</time>
      </trkpt>
      <trkpt lat="48.07475" lon="3.22952">
        <ele>175</ele>
        <time>2019-12-23T18:41:31+01:00</time>
      </trkpt>
      <trkpt lat="48.07504" lon="3.22821">
        <ele>168</ele>
        <time>2019-12-23T18:41:36+01:00</time>
      </trkpt>
      <trkpt lat="48.07525" lon="3.22733">
        <ele>162</ele>
        <time>2019-12-23T18:41:41+01:00</time>
      </trkpt>
      <trkpt lat="48.07546" lon="3.2265">
        <ele>155</ele>
        <time>2019-12-23T18:41:46+01:00</time>
      </trkpt>
      <trkpt lat="48.07556" lon="3.22573">
        <ele>150</ele>
        <time>2019-12-23T18:41:51+01:00</time>
      </trkpt>
      <trkpt lat="48.07574" lon="3.22499">
        <ele>140</ele>
        <time>2019-12-23T18:41:56+01:00</time>
      </trkpt>
      <trkpt lat="48.0759" lon="3.22424">
        <ele>133</ele>
        <time>2019-12-23T18:42:01+01:00</time>
      </trkpt>
      <trkpt lat="48.07595" lon="3.22397">
        <ele>131</ele>
        <time>2019-12-23T18:42:06+01:00</time>
      </trkpt>
      <trkpt lat="48.07586" lon="3.22362">
        <ele>129</ele>
        <time>2019-12-23T18:42:11+01:00</time>
      </trkpt>
      <trkpt lat="48.0767" lon="3.22394">
        <ele>127</ele>
        <time>2019-12-23T18:42:16+01:00</time>
      </trkpt>
      <trkpt lat="48.07699" lon="3.224">
        <ele>125</ele>
        <time>2019-12-23T18:42:21+01:00</time>
      </trkpt>
      <trkpt lat="48.07714" lon="3.22399">
        <ele>124</ele>
        <time>2019-12-23T18:42:26+01:00</time>
      </trkpt>
      <trkpt lat="48.0772" lon="3.22393">
        <ele>123</ele>
        <time>2019-12-23T18:42:31+01:00</time>
      </trkpt>
      <trkpt lat="48.07729" lon="3.22396">
        <ele>123</ele>
        <time>2019-12-23T18:42:36+01:00</time>
      </trkpt>
      <trkpt lat="48.07733" lon="3.22401">
        <ele>123</ele>
        <time>2019-12-23T18:42:41+01:00</time>
      </trkpt>
      <trkpt lat="48.07735" lon="3.22408">
        <ele>123</ele>
        <time>2019-12-23T18:42:46+01:00</time>
      </trkpt>
      <trkpt lat="48.07744" lon="3.22414">
        <ele>122</ele>
        <time>2019-12-23T18:42:51+01:00</time>
      </trkpt>
      <trkpt lat="48.07755" lon="3.22416">
        <ele>122</ele>
        <time>2019-12-23T18:42:56+01:00</time>
      </trkpt>
      <trkpt lat="48.07772" lon="3.22422">
        <ele>121</ele>
        <time>2019-12-23T18:43:01+01:00</time>
      </trkpt>
      <trkpt lat="48.07788" lon="3.22443">
        <ele>122</ele>
        <time>2019-12-23T18:43:06+01:00</time>
      </trkpt>
      <trkpt lat="48.07802" lon="3.22457">
        <ele>123</ele>
        <time>2019-12-23T18:43:11+01:00</time>
      </trkpt>
      <trkpt lat="48.07814" lon="3.22471">
        <ele>123</ele>
        <time>2019-12-23T18:43:16+01:00</time>
      </trkpt>
      <trkpt lat="48.07821" lon="3.22481">
        <ele>123</ele>
        <time>2019-12-23T18:43:21+01:00</time>
      </trkpt>
      <trkpt lat="48.07836" lon="3.22491">
        <ele>123</ele>
        <time>2019-12-23T18:43:26+01:00</time>
      </trkpt>
      <trkpt lat="48.07848" lon="3.22502">
        <ele>122</ele>
        <time>2019-12-23T18:43:31+01:00</time>
      </trkpt>
      <trkpt lat="48.07857" lon="3.22509">
        <ele>122</ele>
        <time>2019-12-23T18:43:36+01:00</time>
      </trkpt>
      <trkpt lat="48.07889" lon="3.2254">
        <ele>120</ele>
        <time>2019-12-23T18:43:41+01:00</time>
      </trkpt>
      <trkpt lat="48.07901" lon="3.22553">
        <ele>119</ele>
        <time>2019-12-23T18:43:46+01:00</time>
      </trkpt>
      <trkpt lat="48.07911" lon="3.22566">
        <ele>119</ele>
        <time>2019-12-23T18:43:51+01:00</time>
      </trkpt>
      <trkpt lat="48.07935" lon="3.22577">
        <ele>118</ele>
        <time>2019-12-23T18:43:56+01:00</time>
      </trkpt>
      <trkpt lat="48.08055" lon="3.22642">
        <ele>116</ele>
        <time>2019-12-23T18:44:01+01:00</time>
      </trkpt>
      <trkpt lat="48.08081" lon="3.22657">
        <ele>116</ele>
        <time>2019-12-23T18:44:06+01:00</time>
      </trkpt>
      <trkpt lat="48.08093" lon="3.22666">
        <ele>116</ele>
        <time>2019-12-23T18:44:11+01:00</time>
      </trkpt>
      <trkpt lat="48.08135" lon="3.22695">
        <ele>116</ele>
        <time>2019-12-23T18:44:16+01:00</time>
      </trkpt>
      <trkpt lat="48.0815" lon="3.22704">
        <ele>116</ele>
        <time>2019-12-23T18:44:21+01:00</time>
      </trkpt>
      <trkpt lat="48.08173" lon="3.22724">
        <ele>117</ele>
        <time>2019-12-23T18:44:26+01:00</time>
      </trkpt>
      <trkpt lat="48.08219" lon="3.22759">
        <ele>115</ele>
        <time>2019-12-23T18:44:31+01:00</time>
      </trkpt>
      <trkpt lat="48.08242" lon="3.22776">
        <ele>115</ele>
        <time>2019-12-23T18:44:36+01:00</time>
      </trkpt>
      <trkpt lat="48.08258" lon="3.22788">
        <ele>115</ele>
        <time>2019-12-23T18:44:41+01:00</time>
      </trkpt>
      <trkpt lat="48.0829" lon="3.22819">
        <ele>116</ele>
        <time>2019-12-23T18:44:46+01:00</time>
      </trkpt>
      <trkpt lat="48.08306" lon="3.22832">
        <ele>115</ele>
        <time>2019-12-23T18:44:51+01:00</time>
      </trkpt>
      <trkpt lat="48.08336" lon="3.22859">
        <ele>117</ele>
        <time>2019-12-23T18:44:56+01:00</time>
      </trkpt>
      <trkpt lat="48.08372" lon="3.2289">
        <ele>119</ele>
        <time>2019-12-23T18:45:01+01:00</time>
      </trkpt>
      <trkpt lat="48.08386" lon="3.22903">
        <ele>119</ele>
        <time>2019-12-23T18:45:06+01:00</time>
      </trkpt>
      <trkpt lat="48.08413" lon="3.22929">
        <ele>120</ele>
        <time>2019-12-23T18:45:11+01:00</time>
      </trkpt>
      <trkpt lat="48.08475" lon="3.22986">
        <ele>120</ele>
        <time>2019-12-23T18:45:16+01:00</time>
      </trkpt>
      <trkpt lat="48.0849" lon="3.23">
        <ele>120</ele>
        <time>2019-12-23T18:45:21+01:00</time>
      </trkpt>
      <trkpt lat="48.085" lon="3.23011">
        <ele>120</ele>
        <time>2019-12-23T18:45:26+01:00</time>
      </trkpt>
      <trkpt lat="48.08516" lon="3.23032">
        <ele>120</ele>
        <time>2019-12-23T18:45:31+01:00</time>
      </trkpt>
      <trkpt lat="48.08545" lon="3.2307">
        <ele>118</ele>
        <time>2019-12-23T18:45:36+01:00</time>
      </trkpt>
      <trkpt lat="48.08595" lon="3.23147">
        <ele>115</ele>
        <time>2019-12-23T18:45:41+01:00</time>
      </trkpt>
      <trkpt lat="48.08637" lon="3.23226">
        <ele>115</ele>
        <time>2019-12-23T18:45:46+01:00</time>
      </trkpt>
      <trkpt lat="48.08657" lon="3.23278">
        <ele>114</ele>
        <time>2019-12-23T18:45:51+01:00</time>
      </trkpt>
      <trkpt lat="48.08674" lon="3.23329">
        <ele>116</ele>
        <time>2019-12-23T18:45:56+01:00</time>
      </trkpt>
      <trkpt lat="48.08706" lon="3.23392">
        <ele>116</ele>
        <time>2019-12-23T18:46:01+01:00</time>
      </trkpt>
      <trkpt lat="48.08733" lon="3.2342">
        <ele>113</ele>
        <time>2019-12-23T18:46:06+01:00</time>
      </trkpt>
      <trkpt lat="48.08762" lon="3.23468">
        <ele>116</ele>
        <time>2019-12-23T18:46:11+01:00</time>
      </trkpt>
      <trkpt lat="48.0877" lon="3.23484">
        <ele>117</ele>
        <time>2019-12-23T18:46:16+01:00</time>
      </trkpt>
      <trkpt lat="48.08781" lon="3.23496">
        <ele>117</ele>
        <time>2019-12-23T18:46:21+01:00</time>
      </trkpt>
      <trkpt lat="48.08802" lon="3.23507">
        <ele>115</ele>
        <time>2019-12-23T18:46:26+01:00</time>
      </trkpt>
      <trkpt lat="48.08824" lon="3.23513">
        <ele>112</ele>
        <time>2019-12-23T18:46:31+01:00</time>
      </trkpt>
      <trkpt lat="48.08838" lon="3.23516">
        <ele>110</ele>
        <time>2019-12-23T18:46:36+01:00</time>
      </trkpt>
      <trkpt lat="48.08841" lon="3.23536">
        <ele>111</ele>
        <time>2019-12-23T18:46:41+01:00</time>
      </trkpt>
      <trkpt lat="48.08867" lon="3.23581">
        <ele>113</ele>
        <time>2019-12-23T18:46:46+01:00</time>
      </trkpt>
      <trkpt lat="48.08882" lon="3.23603">
        <ele>114</ele>
        <time>2019-12-23T18:46:51+01:00</time>
      </trkpt>
      <trkpt lat="48.08895" lon="3.23627">
        <ele>116</ele>
        <time>2019-12-23T18:46:56+01:00</time>
      </trkpt>
      <trkpt lat="48.08911" lon="3.23654">
        <ele>118</ele>
        <time>2019-12-23T18:47:01+01:00</time>
      </trkpt>
      <trkpt lat="48.08929" lon="3.23679">
        <ele>118</ele>
        <time>2019-12-23T18:47:06+01:00</time>
      </trkpt>
      <trkpt lat="48.08945" lon="3.23701">
        <ele>117</ele>
        <time>2019-12-23T18:47:11+01:00</time>
      </trkpt>
      <trkpt lat="48.08957" lon="3.23721">
        <ele>117</ele>
        <time>2019-12-23T18:47:16+01:00</time>
      </trkpt>
      <trkpt lat="48.08992" lon="3.2378">
        <ele>118</ele>
        <time>2019-12-23T18:47:21+01:00</time>
      </trkpt>
      <trkpt lat="48.09017" lon="3.23824">
        <ele>120</ele>
        <time>2019-12-23T18:47:26+01:00</time>
      </trkpt>
      <trkpt lat="48.09043" lon="3.23865">
        <ele>120</ele>
        <time>2019-12-23T18:47:31+01:00</time>
      </trkpt>
      <trkpt lat="48.09086" lon="3.23927">
        <ele>123</ele>
        <time>2019-12-23T18:47:36+01:00</time>
      </trkpt>
      <trkpt lat="48.09106" lon="3.23955">
        <ele>124</ele>
        <time>2019-12-23T18:47:41+01:00</time>
      </trkpt>
      <trkpt lat="48.09116" lon="3.23971">
        <ele>125</ele>
        <time>2019-12-23T18:47:46+01:00</time>
      </trkpt>
      <trkpt lat="48.09125" lon="3.23988">
        <ele>127</ele>
        <time>2019-12-23T18:47:51+01:00</time>
      </trkpt>
      <trkpt lat="48.09132" lon="3.24015">
        <ele>129</ele>
        <time>2019-12-23T18:47:56+01:00</time>
      </trkpt>
      <trkpt lat="48.09157" lon="3.24157">
        <ele>131</ele>
        <time>2019-12-23T18:48:01+01:00</time>
      </trkpt>
      <trkpt lat="48.09159" lon="3.24176">
        <ele>131</ele>
        <time>2019-12-23T18:48:06+01:00</time>
      </trkpt>
      <trkpt lat="48.09164" lon="3.24194">
        <ele>131</ele>
        <time>2019-12-23T18:48:11+01:00</time>
      </trkpt>
      <trkpt lat="48.09175" lon="3.24224">
        <ele>130</ele>
        <time>2019-12-23T18:48:16+01:00</time>
      </trkpt>
      <trkpt lat="48.09186" lon="3.24252">
        <ele>129</ele>
        <time>2019-12-23T18:48:21+01:00</time>
      </trkpt>
      <trkpt lat="48.0921" lon="3.243">
        <ele>129</ele>
        <time>2019-12-23T18:48:26+01:00</time>
      </trkpt>
      <trkpt lat="48.09215" lon="3.24316">
        <ele>130</ele>
        <time>2019-12-23T18:48:31+01:00</time>
      </trkpt>
      <trkpt lat="48.09237" lon="3.24363">
        <ele>130</ele>
        <time>2019-12-23T18:48:36+01:00</time>
      </trkpt>
      <trkpt lat="48.09258" lon="3.24411">
        <ele>131</ele>
        <time>2019-12-23T18:48:41+01:00</time>
      </trkpt>
      <trkpt lat="48.0927" lon="3.2444">
        <ele>129</ele>
        <time>2019-12-23T18:48:46+01:00</time>
      </trkpt>
      <trkpt lat="48.0928" lon="3.24466">
        <ele>128</ele>
        <time>2019-12-23T18:48:51+01:00</time>
      </trkpt>
      <trkpt lat="48.09295" lon="3.24515">
        <ele>126</ele>
        <time>2019-12-23T18:48:56+01:00</time>
      </trkpt>
      <trkpt lat="48.09304" lon="3.24542">
        <ele>125</ele>
        <time>2019-12-23T18:49:01+01:00</time>
      </trkpt>
      <trkpt lat="48.09312" lon="3.24569">
        <ele>124</ele>
        <time>2019-12-23T18:49:06+01:00</time>
      </trkpt>
      <trkpt lat="48.09327" lon="3.2462">
        <ele>122</ele>
        <time>2019-12-23T18:49:11+01:00</time>
      </trkpt>
      <trkpt lat="48.09338" lon="3.24655">
        <ele>120</ele>
        <time>2019-12-23T18:49:16+01:00</time>
      </trkpt>
      <trkpt lat="48.09347" lon="3.24691">
        <ele>118</ele>
        <time>2019-12-23T18:49:21+01:00</time>
      </trkpt>
      <trkpt lat="48.09359" lon="3.24779">
        <ele>114</ele>
        <time>2019-12-23T18:49:26+01:00</time>
      </trkpt>
      <trkpt lat="48.09367" lon="3.24834">
        <ele>111</ele>
        <time>2019-12-23T18:49:31+01:00</time>
      </trkpt>
      <trkpt lat="48.09375" lon="3.24896">
        <ele>109</ele>
        <time>2019-12-23T18:49:36+01:00</time>
      </trkpt>
      <trkpt lat="48.09387" lon="3.2496">
        <ele>109</ele>
        <time>2019-12-23T18:49:41+01:00</time>
      </trkpt>
      <trkpt lat="48.09395" lon="3.24996">
        <ele>109</ele>
        <time>2019-12-23T18:49:46+01:00</time>
      </trkpt>
      <trkpt lat="48.09398" lon="3.2503">
        <ele>109</ele>
        <time>2019-12-23T18:49:51+01:00</time>
      </trkpt>
      <trkpt lat="48.09398" lon="3.25059">
        <ele>109</ele>
        <time>2019-12-23T18:49:56+01:00</time>
      </trkpt>
      <trkpt lat="48.09397" lon="3.25076">
        <ele>109</ele>
        <time>2019-12-23T18:50:01+01:00</time>
      </trkpt>
      <trkpt lat="48.0938" lon="3.25083">
        <ele>112</ele>
        <time>2019-12-23T18:50:06+01:00</time>
      </trkpt>
      <trkpt lat="48.09325" lon="3.25099">
        <ele>120</ele>
        <time>2019-12-23T18:50:11+01:00</time>
      </trkpt>
      <trkpt lat="48.09276" lon="3.25112">
        <ele>126</ele>
        <time>2019-12-23T18:50:16+01:00</time>
      </trkpt>
      <trkpt lat="48.09264" lon="3.25115">
        <ele>127</ele>
        <time>2019-12-23T18:50:21+01:00</time>
      </trkpt>
      <trkpt lat="48.0924" lon="3.25117">
        <ele>130</ele>
        <time>2019-12-23T18:50:26+01:00</time>
      </trkpt>
      <trkpt lat="48.09206" lon="3.25025">
        <ele>142</ele>
        <time>2019-12-23T18:50:31+01:00</time>
      </trkpt>
      <trkpt lat="48.09197" lon="3.25006">
        <ele>144</ele>
        <time>2019-12-23T18:50:36+01:00</time>
      </trkpt>
      <trkpt lat="48.09191" lon="3.24989">
        <ele>146</ele>
        <time>2019-12-23T18:50:41+01:00</time>
      </trkpt>
      <trkpt lat="48.09188" lon="3.2498">
        <ele>147</ele>
        <time>2019-12-23T18:50:46+01:00</time>
      </trkpt>
      <trkpt lat="48.09181" lon="3.24973">
        <ele>149</ele>
        <time>2019-12-23T18:50:51+01:00</time>
      </trkpt>
      <trkpt lat="48.09169" lon="3.24977">
        <ele>151</ele>
        <time>2019-12-23T18:50:56+01:00</time>
      </trkpt>
      <trkpt lat="48.09157" lon="3.24984">
        <ele>152</ele>
        <time>2019-12-23T18:51:01+01:00</time>
      </trkpt>
      <trkpt lat="48.09146" lon="3.24993">
        <ele>153</ele>
        <time>2019-12-23T18:51:06+01:00</time>
      </trkpt>
      <trkpt lat="48.09126" lon="3.25006">
        <ele>154</ele>
        <time>2019-12-23T18:51:11+01:00</time>
      </trkpt>
      <trkpt lat="48.09105" lon="3.25024">
        <ele>154</ele>
        <time>2019-12-23T18:51:16+01:00</time>
      </trkpt>
      <trkpt lat="48.09084" lon="3.25041">
        <ele>154</ele>
        <time>2019-12-23T18:51:21+01:00</time>
      </trkpt>
      <trkpt lat="48.09067" lon="3.25051">
        <ele>155</ele>
        <time>2019-12-23T18:51:26+01:00</time>
      </trkpt>
      <trkpt lat="48.09057" lon="3.25059">
        <ele>155</ele>
        <time>2019-12-23T18:51:31+01:00</time>
      </trkpt>
      <trkpt lat="48.09034" lon="3.25082">
        <ele>154</ele>
        <time>2019-12-23T18:51:36+01:00</time>
      </trkpt>
      <trkpt lat="48.0902" lon="3.25094">
        <ele>155</ele>
        <time>2019-12-23T18:51:41+01:00</time>
      </trkpt>
      <trkpt lat="48.09005" lon="3.25101">
        <ele>155</ele>
        <time>2019-12-23T18:51:46+01:00</time>
      </trkpt>
      <trkpt lat="48.0898" lon="3.25109">
        <ele>155</ele>
        <time>2019-12-23T18:51:51+01:00</time>
      </trkpt>
      <trkpt lat="48.08954" lon="3.25121">
        <ele>155</ele>
        <time>2019-12-23T18:51:56+01:00</time>
      </trkpt>
      <trkpt lat="48.08935" lon="3.2513">
        <ele>154</ele>
        <time>2019-12-23T18:52:01+01:00</time>
      </trkpt>
      <trkpt lat="48.08876" lon="3.25153">
        <ele>151</ele>
        <time>2019-12-23T18:52:06+01:00</time>
      </trkpt>
      <trkpt lat="48.08842" lon="3.2517">
        <ele>148</ele>
        <time>2019-12-23T18:52:11+01:00</time>
      </trkpt>
      <trkpt lat="48.08818" lon="3.25181">
        <ele>146</ele>
        <time>2019-12-23T18:52:16+01:00</time>
      </trkpt>
      <trkpt lat="48.0879" lon="3.25195">
        <ele>143</ele>
        <time>2019-12-23T18:52:21+01:00</time>
      </trkpt>
      <trkpt lat="48.0878" lon="3.252">
        <ele>142</ele>
        <time>2019-12-23T18:52:26+01:00</time>
      </trkpt>
      <trkpt lat="48.08758" lon="3.25207">
        <ele>141</ele>
        <time>2019-12-23T18:52:31+01:00</time>
      </trkpt>
      <trkpt lat="48.08757" lon="3.253">
        <ele>133</ele>
        <time>2019-12-23T18:52:36+01:00</time>
      </trkpt>
      <trkpt lat="48.08756" lon="3.25351">
        <ele>128</ele>
        <time>2019-12-23T18:52:41+01:00</time>
      </trkpt>
      <trkpt lat="48.08755" lon="3.25406">
        <ele>124</ele>
        <time>2019-12-23T18:52:46+01:00</time>
      </trkpt>
      <trkpt lat="48.08754" lon="3.25498">
        <ele>117</ele>
        <time>2019-12-23T18:52:51+01:00</time>
      </trkpt>
      <trkpt lat="48.0875" lon="3.25526">
        <ele>116</ele>
        <time>2019-12-23T18:52:56+01:00</time>
      </trkpt>
      <trkpt lat="48.08743" lon="3.25546">
        <ele>116</ele>
        <time>2019-12-23T18:53:01+01:00</time>
      </trkpt>
      <trkpt lat="48.08738" lon="3.25548">
        <ele>116</ele>
        <time>2019-12-23T18:53:06+01:00</time>
      </trkpt>
      <trkpt lat="48.08732" lon="3.2554">
        <ele>116</ele>
        <time>2019-12-23T18:53:11+01:00</time>
      </trkpt>
      <trkpt lat="48.08724" lon="3.25544">
        <ele>116</ele>
        <time>2019-12-23T18:53:16+01:00</time>
      </trkpt>
      <trkpt lat="48.08718" lon="3.25556">
        <ele>116</ele>
        <time>2019-12-23T18:53:21+01:00</time>
      </trkpt>
      <trkpt lat="48.08709" lon="3.25582">
        <ele>116</ele>
        <time>2019-12-23T18:53:26+01:00</time>
      </trkpt>
      <trkpt lat="48.08706" lon="3.25592">
        <ele>115</ele>
        <time>2019-12-23T18:53:31+01:00</time>
      </trkpt>
      <trkpt lat="48.087" lon="3.25589">
        <ele>116</ele>
        <time>2019-12-23T18:53:36+01:00</time>
      </trkpt>
      <trkpt lat="48.08687" lon="3.25584">
        <ele>116</ele>
        <time>2019-12-23T18:53:41+01:00</time>
      </trkpt>
      <trkpt lat="48.08666" lon="3.25569">
        <ele>118</ele>
        <time>2019-12-23T18:53:46+01:00</time>
      </trkpt>
      <trkpt lat="48.08649" lon="3.25557">
        <ele>119</ele>
        <time>2019-12-23T18:53:51+01:00</time>
      </trkpt>
      <trkpt lat="48.08634" lon="3.25545">
        <ele>120</ele>
        <time>2019-12-23T18:53:56+01:00</time>
      </trkpt>
      <trkpt lat="48.08625" lon="3.25538">
        <ele>121</ele>
        <time>2019-12-23T18:54:01+01:00</time>
      </trkpt>
      <trkpt lat="48.08612" lon="3.25531">
        <ele>122</ele>
        <time>2019-12-23T18:54:06+01:00</time>
      </trkpt>
      <trkpt lat="48.08601" lon="3.25523">
        <ele>123</ele>
        <time>2019-12-23T18:54:11+01:00</time>
      </trkpt>
      <trkpt lat="48.08578" lon="3.25516">
        <ele>125</ele>
        <time>2019-12-23T18:54:16+01:00</time>
      </trkpt>
      <trkpt lat="48.08547" lon="3.25502">
        <ele>130</ele>
        <time>2019-12-23T18:54:21+01:00</time>
      </trkpt>
      <trkpt lat="48.08508" lon="3.25477">
        <ele>136</ele>
        <time>2019-12-23T18:54:26+01:00</time>
      </trkpt>
      <trkpt lat="48.08491" lon="3.25459">
        <ele>139</ele>
        <time>2019-12-23T18:54:31+01:00</time>
      </trkpt>
      <trkpt lat="48.08481" lon="3.25443">
        <ele>141</ele>
        <time>2019-12-23T18:54:36+01:00</time>
      </trkpt>
      <trkpt lat="48.08454" lon="3.25411">
        <ele>145</ele>
        <time>2019-12-23T18:54:41+01:00</time>
      </trkpt>
      <trkpt lat="48.08429" lon="3.25395">
        <ele>149</ele>
        <time>2019-12-23T18:54:46+01:00</time>
      </trkpt>
      <trkpt lat="48.08403" lon="3.25376">
        <ele>152</ele>
        <time>2019-12-23T18:54:51+01:00</time>
      </trkpt>
      <trkpt lat="48.08387" lon="3.25365">
        <ele>153</ele>
        <time>2019-12-23T18:54:56+01:00</time>
      </trkpt>
      <trkpt lat="48.08355" lon="3.2534">
        <ele>157</ele>
        <time>2019-12-23T18:55:01+01:00</time>
      </trkpt>
      <trkpt lat="48.08317" lon="3.25314">
        <ele>161</ele>
        <time>2019-12-23T18:55:06+01:00</time>
      </trkpt>
      <trkpt lat="48.08302" lon="3.25305">
        <ele>162</ele>
        <time>2019-12-23T18:55:11+01:00</time>
      </trkpt>
      <trkpt lat="48.08291" lon="3.25289">
        <ele>162</ele>
        <time>2019-12-23T18:55:16+01:00</time>
      </trkpt>
      <trkpt lat="48.08275" lon="3.25272">
        <ele>163</ele>
        <time>2019-12-23T18:55:21+01:00</time>
      </trkpt>
      <trkpt lat="48.08264" lon="3.25256">
        <ele>163</ele>
        <time>2019-12-23T18:55:26+01:00</time>
      </trkpt>
      <trkpt lat="48.08256" lon="3.25242">
        <ele>164</ele>
        <time>2019-12-23T18:55:31+01:00</time>
      </trkpt>
      <trkpt lat="48.08235" lon="3.25205">
        <ele>166</ele>
        <time>2019-12-23T18:55:36+01:00</time>
      </trkpt>
      <trkpt lat="48.08223" lon="3.25188">
        <ele>166</ele>
        <time>2019-12-23T18:55:41+01:00</time>
      </trkpt>
      <trkpt lat="48.08217" lon="3.25189">
        <ele>167</ele>
        <time>2019-12-23T18:55:46+01:00</time>
      </trkpt>
      <trkpt lat="48.08196" lon="3.25202">
        <ele>168</ele>
        <time>2019-12-23T18:55:51+01:00</time>
      </trkpt>
      <trkpt lat="48.08179" lon="3.25212">
        <ele>169</ele>
        <time>2019-12-23T18:55:56+01:00</time>
      </trkpt>
      <trkpt lat="48.0814" lon="3.25234">
        <ele>171</ele>
        <time>2019-12-23T18:56:01+01:00</time>
      </trkpt>
      <trkpt lat="48.08106" lon="3.2525">
        <ele>173</ele>
        <time>2019-12-23T18:56:06+01:00</time>
      </trkpt>
      <trkpt lat="48.08075" lon="3.25266">
        <ele>174</ele>
        <time>2019-12-23T18:56:11+01:00</time>
      </trkpt>
      <trkpt lat="48.08043" lon="3.25285">
        <ele>174</ele>
        <time>2019-12-23T18:56:16+01:00</time>
      </trkpt>
      <trkpt lat="48.0801" lon="3.25304">
        <ele>174</ele>
        <time>2019-12-23T18:56:21+01:00</time>
      </trkpt>
      <trkpt lat="48.07983" lon="3.2532">
        <ele>173</ele>
        <time>2019-12-23T18:56:26+01:00</time>
      </trkpt>
      <trkpt lat="48.07958" lon="3.25336">
        <ele>172</ele>
        <time>2019-12-23T18:56:31+01:00</time>
      </trkpt>
      <trkpt lat="48.07933" lon="3.25349">
        <ele>171</ele>
        <time>2019-12-23T18:56:36+01:00</time>
      </trkpt>
      <trkpt lat="48.0791" lon="3.25362">
        <ele>169</ele>
        <time>2019-12-23T18:56:41+01:00</time>
      </trkpt>
      <trkpt lat="48.07899" lon="3.25369">
        <ele>167</ele>
        <time>2019-12-23T18:56:46+01:00</time>
      </trkpt>
      <trkpt lat="48.07902" lon="3.25394">
        <ele>167</ele>
        <time>2019-12-23T18:56:51+01:00</time>
      </trkpt>
      <trkpt lat="48.07908" lon="3.25421">
        <ele>167</ele>
        <time>2019-12-23T18:56:56+01:00</time>
      </trkpt>
      <trkpt lat="48.07924" lon="3.25486">
        <ele>165</ele>
        <time>2019-12-23T18:57:01+01:00</time>
      </trkpt>
      <trkpt lat="48.0793" lon="3.25521">
        <ele>165</ele>
        <time>2019-12-23T18:57:06+01:00</time>
      </trkpt>
      <trkpt lat="48.07932" lon="3.25542">
        <ele>165</ele>
        <time>2019-12-23T18:57:11+01:00</time>
      </trkpt>
      <trkpt lat="48.07934" lon="3.2556">
        <ele>165</ele>
        <time>2019-12-23T18:57:16+01:00</time>
      </trkpt>
      <trkpt lat="48.07936" lon="3.25579">
        <ele>164</ele>
        <time>2019-12-23T18:57:21+01:00</time>
      </trkpt>
      <trkpt lat="48.07938" lon="3.25598">
        <ele>165</ele>
        <time>2019-12-23T18:57:26+01:00</time>
      </trkpt>
      <trkpt lat="48.0794" lon="3.25675">
        <ele>165</ele>
        <time>2019-12-23T18:57:31+01:00</time>
      </trkpt>
      <trkpt lat="48.07941" lon="3.25729">
        <ele>164</ele>
        <time>2019-12-23T18:57:36+01:00</time>
      </trkpt>
      <trkpt lat="48.0794" lon="3.25749">
        <ele>164</ele>
        <time>2019-12-23T18:57:41+01:00</time>
      </trkpt>
      <trkpt lat="48.08026" lon="3.25728">
        <ele>166</ele>
        <time>2019-12-23T18:57:46+01:00</time>
      </trkpt>
      <trkpt lat="48.08065" lon="3.25719">
        <ele>168</ele>
        <time>2019-12-23T18:57:51+01:00</time>
      </trkpt>
      <trkpt lat="48.08085" lon="3.25713">
        <ele>168</ele>
        <time>2019-12-23T18:57:56+01:00</time>
      </trkpt>
      <trkpt lat="48.08096" lon="3.25712">
        <ele>169</ele>
        <time>2019-12-23T18:58:01+01:00</time>
      </trkpt>
      <trkpt lat="48.08103" lon="3.25726">
        <ele>168</ele>
        <time>2019-12-23T18:58:06+01:00</time>
      </trkpt>
      <trkpt lat="48.08126" lon="3.25788">
        <ele>166</ele>
        <time>2019-12-23T18:58:11+01:00</time>
      </trkpt>
      <trkpt lat="48.08134" lon="3.25805">
        <ele>165</ele>
        <time>2019-12-23T18:58:16+01:00</time>
      </trkpt>
      <trkpt lat="48.0814" lon="3.25833">
        <ele>163</ele>
        <time>2019-12-23T18:58:21+01:00</time>
      </trkpt>
      <trkpt lat="48.08148" lon="3.25875">
        <ele>161</ele>
        <time>2019-12-23T18:58:26+01:00</time>
      </trkpt>
      <trkpt lat="48.08158" lon="3.25906">
        <ele>160</ele>
        <time>2019-12-23T18:58:31+01:00</time>
      </trkpt>
      <trkpt lat="48.08168" lon="3.25931">
        <ele>160</ele>
        <time>2019-12-23T18:58:36+01:00</time>
      </trkpt>
      <trkpt lat="48.08179" lon="3.25942">
        <ele>159</ele>
        <time>2019-12-23T18:58:41+01:00</time>
      </trkpt>
      <trkpt lat="48.08201" lon="3.25963">
        <ele>158</ele>
        <time>2019-12-23T18:58:46+01:00</time>
      </trkpt>
      <trkpt lat="48.0822" lon="3.25981">
        <ele>158</ele>
        <time>2019-12-23T18:58:51+01:00</time>
      </trkpt>
      <trkpt lat="48.0823" lon="3.25996">
        <ele>158</ele>
        <time>2019-12-23T18:58:56+01:00</time>
      </trkpt>
      <trkpt lat="48.08234" lon="3.26023">
        <ele>157</ele>
        <time>2019-12-23T18:59:01+01:00</time>
      </trkpt>
      <trkpt lat="48.08236" lon="3.26084">
        <ele>153</ele>
        <time>2019-12-23T18:59:06+01:00</time>
      </trkpt>
      <trkpt lat="48.08241" lon="3.26113">
        <ele>151</ele>
        <time>2019-12-23T18:59:11+01:00</time>
      </trkpt>
      <trkpt lat="48.08249" lon="3.26148">
        <ele>149</ele>
        <time>2019-12-23T18:59:16+01:00</time>
      </trkpt>
      <trkpt lat="48.08274" lon="3.26238">
        <ele>141</ele>
        <time>2019-12-23T18:59:21+01:00</time>
      </trkpt>
      <trkpt lat="48.08284" lon="3.26282">
        <ele>138</ele>
        <time>2019-12-23T18:59:26+01:00</time>
      </trkpt>
      <trkpt lat="48.08297" lon="3.26339">
        <ele>134</ele>
        <time>2019-12-23T18:59:31+01:00</time>
      </trkpt>
      <trkpt lat="48.08313" lon="3.26403">
        <ele>129</ele>
        <time>2019-12-23T18:59:36+01:00</time>
      </trkpt>
      <trkpt lat="48.08319" lon="3.26469">
        <ele>127</ele>
        <time>2019-12-23T18:59:41+01:00</time>
      </trkpt>
      <trkpt lat="48.08316" lon="3.26477">
        <ele>127</ele>
        <time>2019-12-23T18:59:46+01:00</time>
      </trkpt>
      <trkpt lat="48.08311" lon="3.2648">
        <ele>127</ele>
        <time>2019-12-23T18:59:51+01:00</time>
      </trkpt>
      <trkpt lat="48.083" lon="3.26491">
        <ele>128</ele>
        <time>2019-12-23T18:59:56+01:00</time>
      </trkpt>
      <trkpt lat="48.08308" lon="3.26521">
        <ele>127</ele>
        <time>2019-12-23T19:00:01+01:00</time>
      </trkpt>
      <trkpt lat="48.08315" lon="3.26551">
        <ele>126</ele>
        <time>2019-12-23T19:00:06+01:00</time>
      </trkpt>
      <trkpt lat="48.0836" lon="3.26669">
        <ele>120</ele>
        <time>2019-12-23T19:00:11+01:00</time>
      </trkpt>
      <trkpt lat="48.08375" lon="3.26716">
        <ele>117</ele>
        <time>2019-12-23T19:00:16+01:00</time>
      </trkpt>
      <trkpt lat="48.08388" lon="3.26746">
        <ele>114</ele>
        <time>2019-12-23T19:00:21+01:00</time>
      </trkpt>
      <trkpt lat="48.08392" lon="3.26753">
        <ele>114</ele>
        <time>2019-12-23T19:00:26+01:00</time>
      </trkpt>
      <trkpt lat="48.08368" lon="3.2678">
        <ele>115</ele>
        <time>2019-12-23T19:00:31+01:00</time>
      </trkpt>
      <trkpt lat="48.08339" lon="3.26822">
        <ele>116</ele>
        <time>2019-12-23T19:00:36+01:00</time>
      </trkpt>
      <trkpt lat="48.08283" lon="3.26899">
        <ele>121</ele>
        <time>2019-12-23T19:00:41+01:00</time>
      </trkpt>
      <trkpt lat="48.08223" lon="3.26975">
        <ele>128</ele>
        <time>2019-12-23T19:00:46+01:00</time>
      </trkpt>
      <trkpt lat="48.08249" lon="3.27005">
        <ele>122</ele>
        <time>2019-12-23T19:00:51+01:00</time>
      </trkpt>
      <trkpt lat="48.0827" lon="3.27044">
        <ele>120</ele>
        <time>2019-12-23T19:00:56+01:00</time>
      </trkpt>
      <trkpt lat="48.08283" lon="3.27085">
        <ele>119</ele>
        <time>2019-12-23T19:01:01+01:00</time>
      </trkpt>
      <trkpt lat="48.08306" lon="3.27139">
        <ele>115</ele>
        <time>2019-12-23T19:01:06+01:00</time>
      </trkpt>
      <trkpt lat="48.08333" lon="3.27187">
        <ele>112</ele>
        <time>2019-12-23T19:01:11+01:00</time>
      </trkpt>
      <trkpt lat="48.08362" lon="3.27237">
        <ele>111</ele>
        <time>2019-12-23T19:01:16+01:00</time>
      </trkpt>
      <trkpt lat="48.08364" lon="3.27255">
        <ele>110</ele>
        <time>2019-12-23T19:01:21+01:00</time>
      </trkpt>
      <trkpt lat="48.08371" lon="3.27274">
        <ele>110</ele>
        <time>2019-12-23T19:01:26+01:00</time>
      </trkpt>
      <trkpt lat="48.08414" lon="3.27342">
        <ele>106</ele>
        <time>2019-12-23T19:01:31+01:00</time>
      </trkpt>
      <trkpt lat="48.08458" lon="3.27408">
        <ele>103</ele>
        <time>2019-12-23T19:01:36+01:00</time>
      </trkpt>
      <trkpt lat="48.08499" lon="3.27463">
        <ele>100</ele>
        <time>2019-12-23T19:01:41+01:00</time>
      </trkpt>
      <trkpt lat="48.08519" lon="3.27491">
        <ele>99</ele>
        <time>2019-12-23T19:01:46+01:00</time>
      </trkpt>
      <trkpt lat="48.08535" lon="3.27522">
        <ele>97</ele>
        <time>2019-12-23T19:01:51+01:00</time>
      </trkpt>
      <trkpt lat="48.0851" lon="3.27566">
        <ele>97</ele>
        <time>2019-12-23T19:01:56+01:00</time>
      </trkpt>
      <trkpt lat="48.0848" lon="3.276">
        <ele>97</ele>
        <time>2019-12-23T19:02:01+01:00</time>
      </trkpt>
      <trkpt lat="48.08466" lon="3.27615">
        <ele>98</ele>
        <time>2019-12-23T19:02:06+01:00</time>
      </trkpt>
      <trkpt lat="48.08449" lon="3.27633">
        <ele>99</ele>
        <time>2019-12-23T19:02:11+01:00</time>
      </trkpt>
      <trkpt lat="48.08422" lon="3.27656">
        <ele>101</ele>
        <time>2019-12-23T19:02:16+01:00</time>
      </trkpt>
      <trkpt lat="48.08405" lon="3.27671">
        <ele>102</ele>
        <time>2019-12-23T19:02:21+01:00</time>
      </trkpt>
      <trkpt lat="48.08389" lon="3.2769">
        <ele>102</ele>
        <time>2019-12-23T19:02:26+01:00</time>
      </trkpt>
      <trkpt lat="48.08372" lon="3.2772">
        <ele>103</ele>
        <time>2019-12-23T19:02:31+01:00</time>
      </trkpt>
      <trkpt lat="48.08362" lon="3.27751">
        <ele>104</ele>
        <time>2019-12-23T19:02:36+01:00</time>
      </trkpt>
      <trkpt lat="48.08358" lon="3.2778">
        <ele>104</ele>
        <time>2019-12-23T19:02:41+01:00</time>
      </trkpt>
      <trkpt lat="48.0836" lon="3.27797">
        <ele>104</ele>
        <time>2019-12-23T19:02:46+01:00</time>
      </trkpt>
      <trkpt lat="48.08363" lon="3.27812">
        <ele>104</ele>
        <time>2019-12-23T19:02:51+01:00</time>
      </trkpt>
      <trkpt lat="48.08355" lon="3.27826">
        <ele>104</ele>
        <time>2019-12-23T19:02:56+01:00</time>
      </trkpt>
      <trkpt lat="48.0835" lon="3.2784">
        <ele>104</ele>
        <time>2019-12-23T19:03:01+01:00</time>
      </trkpt>
      <trkpt lat="48.08371" lon="3.27878">
        <ele>100</ele>
        <time>2019-12-23T19:03:06+01:00</time>
      </trkpt>
      <trkpt lat="48.0838" lon="3.27898">
        <ele>98</ele>
        <time>2019-12-23T19:03:11+01:00</time>
      </trkpt>
      <trkpt lat="48.08391" lon="3.27927">
        <ele>96</ele>
        <time>2019-12-23T19:03:16+01:00</time>
      </trkpt>
      <trkpt lat="48.08403" lon="3.27988">
        <ele>93</ele>
        <time>2019-12-23T19:03:21+01:00</time>
      </trkpt>
      <trkpt lat="48.08409" lon="3.28021">
        <ele>93</ele>
        <time>2019-12-23T19:03:26+01:00</time>
      </trkpt>
      <trkpt lat="48.08417" lon="3.28053">
        <ele>92</ele>
        <time>2019-12-23T19:03:31+01:00</time>
      </trkpt>
      <trkpt lat="48.08438" lon="3.28103">
        <ele>91</ele>
        <time>2019-12-23T19:03:36+01:00</time>
      </trkpt>
      <trkpt lat="48.08454" lon="3.28143">
        <ele>90</ele>
        <time>2019-12-23T19:03:41+01:00</time>
      </trkpt>
      <trkpt lat="48.0846" lon="3.2816">
        <ele>90</ele>
        <time>2019-12-23T19:03:46+01:00</time>
      </trkpt>
      <trkpt lat="48.08476" lon="3.28198">
        <ele>88</ele>
        <time>2019-12-23T19:03:51+01:00</time>
      </trkpt>
      <trkpt lat="48.08492" lon="3.28236">
        <ele>87</ele>
        <time>2019-12-23T19:03:56+01:00</time>
      </trkpt>
      <trkpt lat="48.08483" lon="3.28248">
        <ele>87</ele>
        <time>2019-12-23T19:04:01+01:00</time>
      </trkpt>
      <trkpt lat="48.08472" lon="3.2826">
        <ele>87</ele>
        <time>2019-12-23T19:04:06+01:00</time>
      </trkpt>
      <trkpt lat="48.0844" lon="3.28299">
        <ele>88</ele>
        <time>2019-12-23T19:04:11+01:00</time>
      </trkpt>
      <trkpt lat="48.08417" lon="3.28329">
        <ele>89</ele>
        <time>2019-12-23T19:04:16+01:00</time>
      </trkpt>
      <trkpt lat="48.08396" lon="3.28349">
        <ele>90</ele>
        <time>2019-12-23T19:04:21+01:00</time>
      </trkpt>
      <trkpt lat="48.08378" lon="3.28362">
        <ele>90</ele>
        <time>2019-12-23T19:04:26+01:00</time>
      </trkpt>
      <trkpt lat="48.0836" lon="3.28368">
        <ele>91</ele>
        <time>2019-12-23T19:04:31+01:00</time>
      </trkpt>
      <trkpt lat="48.08335" lon="3.28371">
        <ele>92</ele>
        <time>2019-12-23T19:04:36+01:00</time>
      </trkpt>
      <trkpt lat="48.083" lon="3.28382">
        <ele>94</ele>
        <time>2019-12-23T19:04:41+01:00</time>
      </trkpt>
      <trkpt lat="48.08327" lon="3.28561">
        <ele>75</ele>
        <time>2019-12-23T19:04:46+01:00</time>
      </trkpt>
      <trkpt lat="48.08315" lon="3.28567">
        <ele>75</ele>
        <time>2019-12-23T19:04:51+01:00</time>
      </trkpt>
      <trkpt lat="48.08314" lon="3.2858">
        <ele>74</ele>
        <time>2019-12-23T19:04:56+01:00</time>
      </trkpt>
      <trkpt lat="48.08312" lon="3.28598">
        <ele>74</ele>
        <time>2019-12-23T19:05:01+01:00</time>
      </trkpt>
      <trkpt lat="48.08311" lon="3.28618">
        <ele>74</ele>
        <time>2019-12-23T19:05:06+01:00</time>
      </trkpt>
      <trkpt lat="48.08315" lon="3.28688">
        <ele>73</ele>
        <time>2019-12-23T19:05:11+01:00</time>
      </trkpt>
      <trkpt lat="48.08301" lon="3.28688">
        <ele>73</ele>
        <time>2019-12-23T19:05:16+01:00</time>
      </trkpt>
      <trkpt lat="48.08298" lon="3.287">
        <ele>72</ele>
        <time>2019-12-23T19:05:21+01:00</time>
      </trkpt>
      <trkpt lat="48.08302" lon="3.28728">
        <ele>72</ele>
        <time>2019-12-23T19:05:26+01:00</time>
      </trkpt>
      <trkpt lat="48.08312" lon="3.28781">
        <ele>71</ele>
        <time>2019-12-23T19:05:31+01:00</time>
      </trkpt>
      <trkpt lat="48.08318" lon="3.28833">
        <ele>71</ele>
        <time>2019-12-23T19:05:36+01:00</time>
      </trkpt>
      <trkpt lat="48.0832" lon="3.2886">
        <ele>71</ele>
        <time>2019-12-23T19:05:41+01:00</time>
      </trkpt>
      <trkpt lat="48.08321" lon="3.28887">
        <ele>71</ele>
        <time>2019-12-23T19:05:46+01:00</time>
      </trkpt>
      <trkpt lat="48.0832" lon="3.28922">
        <ele>71</ele>
        <time>2019-12-23T19:05:51+01:00</time>
      </trkpt>
      <trkpt lat="48.08315" lon="3.28956">
        <ele>71</ele>
        <time>2019-12-23T19:05:56+01:00</time>
      </trkpt>
      <trkpt lat="48.08307" lon="3.28992">
        <ele>70</ele>
        <time>2019-12-23T19:06:01+01:00</time>
      </trkpt>
      <trkpt lat="48.08286" lon="3.29058">
        <ele>70</ele>
        <time>2019-12-23T19:06:06+01:00</time>
      </trkpt>
      <trkpt lat="48.08263" lon="3.29142">
        <ele>70</ele>
        <time>2019-12-23T19:06:11+01:00</time>
      </trkpt>
      <trkpt lat="48.08239" lon="3.29226">
        <ele>71</ele>
        <time>2019-12-23T19:06:16+01:00</time>
      </trkpt>
      <trkpt lat="48.08225" lon="3.29281">
        <ele>72</ele>
        <time>2019-12-23T19:06:21+01:00</time>
      </trkpt>
      <trkpt lat="48.08239" lon="3.29292">
        <ele>73</ele>
        <time>2019-12-23T19:06:26+01:00</time>
      </trkpt>
      <trkpt lat="48.08244" lon="3.29284">
        <ele>72</ele>
        <time>2019-12-23T19:06:31+01:00</time>
      </trkpt>
      <trkpt lat="48.08274" lon="3.29299">
        <ele>72</ele>
        <time>2019-12-23T19:06:36+01:00</time>
      </trkpt>
      <trkpt lat="48.08284" lon="3.29303">
        <ele>72</ele>
        <time>2019-12-23T19:06:41+01:00</time>
      </trkpt>
      <trkpt lat="48.08298" lon="3.29308">
        <ele>72</ele>
        <time>2019-12-23T19:06:46+01:00</time>
      </trkpt>
      <trkpt lat="48.08326" lon="3.29316">
        <ele>71</ele>
        <time>2019-12-23T19:06:51+01:00</time>
      </trkpt>
      <trkpt lat="48.08356" lon="3.29327">
        <ele>70</ele>
        <time>2019-12-23T19:06:56+01:00</time>
      </trkpt>
      <trkpt lat="48.08363" lon="3.29334">
        <ele>70</ele>
        <time>2019-12-23T19:07:01+01:00</time>
      </trkpt>
      <trkpt lat="48.08365" lon="3.29341">
        <ele>70</ele>
        <time>2019-12-23T19:07:06+01:00</time>
      </trkpt>
      <trkpt lat="48.0848" lon="3.29331">
        <ele>69</ele>
        <time>2019-12-23T19:07:11+01:00</time>
      </trkpt>
      <trkpt lat="48.08548" lon="3.29319">
        <ele>70</ele>
        <time>2019-12-23T19:07:16+01:00</time>
      </trkpt>
      <trkpt lat="48.08578" lon="3.29313">
        <ele>70</ele>
        <time>2019-12-23T19:07:21+01:00</time>
      </trkpt>
    </trkseg>
  </trk>
</gpx>